createdAt,value
2023-05-08T00:02:17.532Z,17.60
2023-05-08T00:04:45.064Z,17.60
2023-05-08T00:07:11.964Z,17.50
2023-05-08T00:09:39.385Z,17.50
2023-05-08T00:12:07.026Z,17.50
2023-05-08T00:14:35.550Z,17.40
2023-05-08T00:17:03.035Z,17.40
2023-05-08T00:19:30.622Z,17.40
2023-05-08T00:21:57.633Z,17.10
2023-05-08T00:24:24.795Z,17.10
2023-05-08T00:26:51.798Z,17.00
2023-05-08T00:29:18.850Z,16.80
2023-05-08T00:31:47.195Z,16.80
2023-05-08T00:34:14.629Z,16.70
2023-05-08T00:36:41.648Z,16.70
2023-05-08T00:39:09.153Z,16.70
2023-05-08T00:41:36.435Z,16.70
2023-05-08T00:44:03.484Z,16.80
2023-05-08T00:46:30.814Z,16.90
2023-05-08T00:49:00.653Z,16.90
2023-05-08T00:51:28.291Z,17.00
2023-05-08T00:53:56.341Z,17.00
2023-05-08T00:56:24.972Z,17.00
2023-05-08T00:58:52.267Z,17.10
2023-05-08T01:01:20.087Z,17.00
2023-05-08T01:03:47.315Z,17.00
2023-05-08T01:06:15.737Z,17.00
2023-05-08T01:08:45.944Z,16.90
2023-05-08T01:11:18.719Z,16.90
2023-05-08T01:13:58.480Z,17.00
2023-05-08T01:16:37.235Z,17.00
2023-05-08T01:19:29.759Z,16.80
2023-05-08T01:22:10.091Z,16.80
2023-05-08T01:25:28.155Z,16.60
2023-05-08T01:28:14.348Z,16.80
2023-05-08T01:31:05.751Z,16.80
2023-05-08T01:33:43.227Z,16.90
2023-05-08T01:36:19.304Z,17.00
2023-05-08T01:38:56.127Z,17.00
2023-05-08T01:41:29.871Z,17.00
2023-05-08T01:44:11.904Z,16.90
2023-05-08T01:46:39.084Z,16.90
2023-05-08T01:49:11.902Z,17.00
2023-05-08T01:51:45.198Z,17.00
2023-05-08T01:54:16.713Z,16.90
2023-05-08T01:56:47.069Z,16.90
2023-05-08T01:59:20.627Z,16.80
2023-05-08T02:01:50.637Z,16.80
2023-05-08T02:04:19.825Z,16.90
2023-05-08T02:06:47.511Z,16.80
2023-05-08T02:09:15.793Z,16.80
2023-05-08T02:11:45.251Z,16.80
2023-05-08T02:14:13.585Z,16.80
2023-05-08T02:16:42.698Z,16.70
2023-05-08T02:19:10.679Z,16.80
2023-05-08T02:21:40.739Z,16.80
2023-05-08T02:24:09.314Z,16.70
2023-05-08T02:26:37.976Z,16.70
2023-05-08T02:29:05.191Z,16.80
2023-05-08T02:31:33.151Z,16.80
2023-05-08T02:34:01.403Z,16.80
2023-05-08T02:36:29.389Z,16.80
2023-05-08T02:39:00.847Z,16.80
2023-05-08T02:41:32.438Z,16.80
2023-05-08T02:44:00.139Z,16.80
2023-05-08T02:46:37.201Z,16.70
2023-05-08T02:49:08.885Z,16.70
2023-05-08T02:51:48.736Z,16.70
2023-05-08T02:54:27.213Z,16.70
2023-05-08T02:57:00.065Z,16.70
2023-05-08T02:59:36.965Z,16.60
2023-05-08T03:02:10.720Z,16.70
2023-05-08T03:04:44.544Z,16.70
2023-05-08T03:07:13.422Z,16.70
2023-05-08T03:09:45.871Z,16.70
2023-05-08T03:12:17.849Z,16.70
2023-05-08T03:14:57.529Z,16.70
2023-05-08T03:17:25.701Z,16.60
2023-05-08T03:19:58.373Z,16.70
2023-05-08T03:22:26.647Z,16.50
2023-05-08T03:24:56.981Z,16.50
2023-05-08T03:27:24.905Z,16.30
2023-05-08T03:29:54.001Z,16.30
2023-05-08T03:32:25.244Z,16.40
2023-05-08T03:34:53.089Z,16.50
2023-05-08T03:37:20.634Z,16.50
2023-05-08T03:39:47.772Z,16.40
2023-05-08T03:42:21.693Z,16.40
2023-05-08T03:44:50.845Z,16.30
2023-05-08T03:47:19.265Z,16.40
2023-05-08T03:49:47.926Z,16.40
2023-05-08T03:52:16.169Z,16.40
2023-05-08T03:54:44.041Z,16.50
2023-05-08T03:57:11.286Z,16.50
2023-05-08T03:59:47.751Z,16.50
2023-05-08T04:02:23.642Z,16.50
2023-05-08T04:04:57.966Z,16.50
2023-05-08T04:07:30.307Z,16.50
2023-05-08T04:10:05.195Z,16.50
2023-05-08T04:12:38.957Z,16.40
2023-05-08T04:15:13.190Z,16.40
2023-05-08T04:17:46.298Z,16.40
2023-05-08T04:20:17.678Z,16.40
2023-05-08T04:22:46.774Z,16.30
2023-05-08T04:28:02.578Z,16.30
2023-05-08T04:30:31.724Z,16.30
2023-05-08T04:32:59.747Z,16.30
2023-05-08T04:35:27.307Z,16.30
2023-05-08T04:37:54.487Z,16.20
2023-05-08T04:40:22.433Z,16.30
2023-05-08T04:42:49.357Z,16.30
2023-05-08T04:45:17.025Z,16.30
2023-05-08T04:47:45.524Z,16.20
2023-05-08T04:50:12.605Z,16.30
2023-05-08T04:52:39.574Z,16.30
2023-05-08T04:55:08.651Z,16.10
2023-05-08T04:57:35.632Z,16.10
2023-05-08T05:00:03.154Z,16.20
2023-05-08T05:02:30.095Z,16.20
2023-05-08T05:04:58.911Z,16.20
2023-05-08T05:07:26.042Z,16.20
2023-05-08T05:09:53.498Z,16.00
2023-05-08T05:12:20.422Z,16.10
2023-05-08T05:14:47.363Z,16.00
2023-05-08T05:17:14.798Z,16.00
2023-05-08T05:19:41.668Z,15.80
2023-05-08T05:22:09.976Z,15.90
2023-05-08T05:24:37.007Z,15.90
2023-05-08T05:27:05.098Z,15.70
2023-05-08T05:29:32.115Z,15.70
2023-05-08T05:31:59.207Z,15.70
2023-05-08T05:34:26.218Z,15.80
2023-05-08T05:36:53.612Z,15.80
2023-05-08T05:39:21.894Z,15.90
2023-05-08T05:41:48.834Z,16.00
2023-05-08T05:44:16.450Z,16.00
2023-05-08T05:46:44.610Z,16.00
2023-05-08T05:49:12.823Z,16.00
2023-05-08T05:51:40.304Z,16.10
2023-05-08T05:54:07.593Z,16.10
2023-05-08T05:56:35.870Z,16.00
2023-05-08T05:59:03.029Z,16.10
2023-05-08T06:01:30.046Z,16.00
2023-05-08T06:03:57.605Z,16.10
2023-05-08T06:06:24.871Z,16.10
2023-05-08T06:08:52.303Z,16.10
2023-05-08T06:11:19.434Z,16.10
2023-05-08T06:13:50.428Z,16.10
2023-05-08T06:16:17.660Z,16.10
2023-05-08T06:18:45.122Z,16.10
2023-05-08T06:21:12.040Z,16.10
2023-05-08T06:23:39.046Z,16.20
2023-05-08T06:26:06.613Z,16.10
2023-05-08T06:28:33.852Z,16.10
2023-05-08T06:31:02.270Z,16.10
2023-05-08T06:33:29.883Z,16.10
2023-05-08T06:35:57.264Z,16.20
2023-05-08T06:38:24.314Z,16.10
2023-05-08T06:40:51.344Z,16.10
2023-05-08T06:43:18.355Z,16.10
2023-05-08T06:45:45.740Z,16.10
2023-05-08T06:48:14.151Z,16.10
2023-05-08T06:50:41.989Z,16.20
2023-05-08T06:53:09.989Z,16.10
2023-05-08T06:55:37.006Z,16.10
2023-05-08T06:58:04.146Z,16.10
2023-05-08T07:00:31.591Z,16.10
2023-05-08T07:02:58.727Z,16.00
2023-05-08T07:05:27.757Z,16.00
2023-05-08T07:07:54.842Z,16.10
2023-05-08T07:10:23.378Z,16.20
2023-05-08T07:12:50.450Z,16.30
2023-05-08T07:17:52.043Z,16.30
2023-05-08T07:20:19.147Z,16.30
2023-05-08T07:22:47.989Z,16.10
2023-05-08T07:25:15.307Z,16.30
2023-05-08T07:27:42.726Z,16.30
2023-05-08T07:30:11.135Z,16.30
2023-05-08T07:32:39.711Z,16.40
2023-05-08T07:35:11.100Z,16.40
2023-05-08T07:37:38.939Z,16.30
2023-05-08T07:40:08.938Z,16.40
2023-05-08T07:42:41.242Z,16.40
2023-05-08T07:45:10.605Z,16.60
2023-05-08T07:47:38.590Z,16.70
2023-05-08T07:50:07.150Z,16.70
2023-05-08T07:52:37.479Z,16.80
2023-05-08T07:55:07.763Z,16.90
2023-05-08T07:57:38.229Z,16.90
2023-05-08T08:02:53.104Z,16.90
2023-05-08T08:05:20.636Z,16.90
2023-05-08T08:07:48.786Z,17.00
2023-05-08T08:10:17.350Z,17.10
2023-05-08T08:12:44.582Z,17.10
2023-05-08T08:15:15.118Z,17.10
2023-05-08T08:17:42.708Z,17.10
2023-05-08T08:20:11.347Z,17.10
2023-05-08T08:22:41.620Z,17.10
2023-05-08T08:27:58.942Z,17.10
2023-05-08T08:30:25.985Z,17.20
2023-05-08T08:32:55.101Z,17.20
2023-05-08T08:35:29.213Z,17.20
2023-05-08T08:37:56.394Z,17.20
2023-05-08T08:40:24.028Z,17.20
2023-05-08T08:42:51.139Z,17.30
2023-05-08T08:45:22.819Z,17.30
2023-05-08T08:47:53.506Z,17.30
2023-05-08T08:53:12.716Z,17.20
2023-05-08T08:55:45.550Z,17.20
2023-05-08T08:58:18.865Z,17.20
2023-05-08T09:00:48.602Z,17.20
2023-05-08T09:03:16.911Z,17.20
2023-05-08T09:05:45.905Z,17.30
2023-05-08T09:08:13.041Z,17.40
2023-05-08T09:10:41.322Z,17.40
2023-05-08T09:13:08.503Z,17.40
2023-05-08T09:15:35.728Z,17.40
2023-05-08T09:18:05.474Z,17.40
2023-05-08T09:20:33.478Z,17.40
2023-05-08T09:23:04.219Z,17.30
2023-05-08T09:25:46.911Z,17.30
2023-05-08T09:28:19.010Z,17.30
2023-05-08T09:30:53.937Z,17.20
2023-05-08T09:33:25.421Z,17.20
2023-05-08T09:35:53.325Z,17.30
2023-05-08T09:38:36.970Z,17.30
2023-05-08T09:41:12.316Z,17.40
2023-05-08T09:43:44.729Z,17.40
2023-05-08T09:46:23.789Z,17.40
2023-05-08T09:48:54.674Z,17.40
2023-05-08T09:51:22.471Z,17.50
2023-05-08T09:53:53.583Z,17.60
2023-05-08T09:56:35.847Z,17.60
2023-05-08T09:59:07.416Z,17.70
2023-05-08T10:01:40.120Z,17.80
2023-05-08T10:04:09.393Z,17.80
2023-05-08T10:06:39.405Z,17.80
2023-05-08T10:09:12.693Z,17.80
2023-05-08T10:11:40.685Z,17.90
2023-05-08T10:14:09.045Z,17.80
2023-05-08T10:16:42.894Z,17.90
2023-05-08T10:19:15.616Z,18.00
2023-05-08T10:21:46.986Z,18.10
2023-05-08T10:24:20.484Z,18.10
2023-05-08T10:27:06.743Z,18.10
2023-05-08T10:29:43.042Z,18.20
2023-05-08T10:32:11.366Z,18.10
2023-05-08T10:34:42.699Z,18.20
2023-05-08T10:37:10.917Z,18.30
2023-05-08T10:39:39.338Z,18.30
2023-05-08T10:42:06.929Z,18.30
2023-05-08T10:44:34.900Z,18.30
2023-05-08T10:47:13.311Z,18.30
2023-05-08T10:49:51.523Z,18.20
2023-05-08T10:52:25.737Z,18.20
2023-05-08T10:55:17.771Z,18.20
2023-05-08T10:58:04.923Z,18.30
2023-05-08T11:00:33.881Z,18.30
2023-05-08T11:03:20.096Z,18.30
2023-05-08T11:05:54.134Z,18.40
2023-05-08T11:08:27.856Z,18.30
2023-05-08T11:11:06.299Z,18.30
2023-05-08T11:13:36.224Z,18.30
2023-05-08T11:16:10.916Z,18.40
2023-05-08T11:19:18.092Z,18.40
2023-05-08T11:22:27.024Z,18.40
2023-05-08T11:25:09.731Z,18.30
2023-05-08T11:27:40.514Z,18.30
2023-05-08T11:30:35.972Z,18.20
2023-05-08T11:33:15.982Z,18.20
2023-05-08T11:35:55.459Z,18.30
2023-05-08T11:38:36.565Z,18.40
2023-05-08T11:41:07.333Z,18.40
2023-05-08T11:44:27.354Z,18.50
2023-05-08T11:46:56.321Z,18.40
2023-05-08T11:49:28.441Z,18.40
2023-05-08T11:52:07.043Z,18.40
2023-05-08T11:54:36.558Z,18.30
2023-05-08T11:57:03.862Z,18.30
2023-05-08T11:59:36.711Z,18.30
2023-05-08T12:02:09.512Z,18.30
2023-05-08T12:04:46.667Z,18.30
2023-05-08T12:07:14.299Z,18.40
2023-05-08T12:09:46.249Z,18.40
2023-05-08T12:12:13.827Z,18.50
2023-05-08T12:14:40.864Z,18.40
2023-05-08T12:17:11.113Z,18.40
2023-05-08T12:19:38.318Z,18.30
2023-05-08T12:22:05.685Z,18.30
2023-05-08T12:24:33.276Z,18.30
2023-05-08T12:27:01.900Z,18.30
2023-05-08T12:29:29.441Z,18.30
2023-05-08T12:31:58.094Z,18.30
2023-05-08T12:34:26.501Z,18.30
2023-05-08T12:37:03.306Z,18.30
2023-05-08T12:39:37.176Z,18.30
2023-05-08T12:42:11.474Z,18.40
2023-05-08T12:44:42.203Z,18.40
2023-05-08T12:47:10.388Z,18.30
2023-05-08T12:49:38.769Z,18.30
2023-05-08T12:52:08.273Z,18.30
2023-05-08T12:54:38.423Z,18.30
2023-05-08T12:57:15.354Z,18.30
2023-05-08T12:59:44.266Z,18.20
2023-05-08T13:02:18.495Z,18.20
2023-05-08T13:04:46.779Z,18.20
2023-05-08T13:07:15.096Z,18.30
2023-05-08T13:09:59.367Z,18.40
2023-05-08T13:12:28.515Z,18.30
2023-05-08T13:14:55.525Z,18.40
2023-05-08T13:17:22.653Z,18.40
2023-05-08T13:19:49.879Z,18.40
2023-05-08T13:22:17.514Z,18.30
2023-05-08T13:24:45.080Z,18.30
2023-05-08T13:27:13.293Z,18.40
2023-05-08T13:29:42.360Z,18.50
2023-05-08T13:32:10.051Z,18.40
2023-05-08T13:34:41.679Z,18.40
2023-05-08T13:37:16.628Z,18.40
2023-05-08T13:39:44.383Z,18.40
2023-05-08T13:42:14.379Z,18.40
2023-05-08T13:44:43.820Z,18.40
2023-05-08T13:47:14.604Z,18.40
2023-05-08T13:49:44.975Z,18.50
2023-05-08T13:52:11.989Z,18.60
2023-05-08T13:54:41.861Z,18.60
2023-05-08T13:57:10.028Z,18.60
2023-05-08T13:59:40.112Z,18.60
2023-05-08T14:02:08.671Z,18.70
2023-05-08T14:04:35.734Z,18.60
2023-05-08T14:07:03.080Z,18.60
2023-05-08T14:09:30.619Z,18.70
2023-05-08T14:11:57.759Z,18.70
2023-05-08T14:14:25.308Z,18.70
2023-05-08T14:16:52.368Z,18.70
2023-05-08T14:22:05.641Z,18.80
2023-05-08T14:24:32.750Z,18.80
2023-05-08T14:26:59.830Z,18.90
2023-05-08T14:29:26.889Z,18.90
2023-05-08T14:31:54.030Z,18.80
2023-05-08T14:34:23.038Z,18.80
2023-05-08T14:36:50.094Z,18.80
2023-05-08T14:39:17.265Z,18.90
2023-05-08T14:41:54.979Z,18.90
2023-05-08T14:44:31.528Z,18.80
2023-05-08T14:46:58.597Z,18.80
2023-05-08T14:49:36.656Z,18.90
2023-05-08T14:52:06.123Z,18.90
2023-05-08T14:57:19.617Z,19.00
2023-05-08T14:59:55.080Z,18.90
2023-05-08T15:02:23.688Z,18.90
2023-05-08T15:04:53.282Z,18.80
2023-05-08T15:07:20.478Z,18.80
2023-05-08T15:09:48.351Z,18.80
2023-05-08T15:12:24.614Z,18.80
2023-05-08T15:14:51.646Z,18.70
2023-05-08T15:17:18.711Z,18.70
2023-05-08T15:19:46.046Z,18.80
2023-05-08T15:22:15.555Z,18.80
2023-05-08T15:24:42.754Z,18.80
2023-05-08T15:27:15.220Z,18.80
2023-05-08T15:29:46.037Z,18.80
2023-05-08T15:32:20.930Z,18.80
2023-05-08T15:34:55.827Z,18.80
2023-05-08T15:37:26.517Z,18.90
2023-05-08T15:39:53.871Z,18.90
2023-05-08T15:42:24.357Z,18.90
2023-05-08T15:44:56.684Z,18.90
2023-05-08T15:47:31.768Z,18.90
2023-05-08T15:50:01.693Z,18.80
2023-05-08T15:52:30.552Z,18.80
2023-05-08T15:54:57.927Z,18.80
2023-05-08T15:57:26.990Z,18.80
2023-05-08T15:59:57.297Z,18.90
2023-05-08T16:02:30.982Z,18.90
2023-05-08T16:04:58.103Z,18.90
2023-05-08T16:07:32.633Z,18.90
2023-05-08T16:10:00.765Z,18.90
2023-05-08T16:12:33.568Z,19.00
2023-05-08T16:15:09.899Z,19.00
2023-05-08T16:17:40.633Z,19.10
2023-05-08T16:20:11.588Z,19.10
2023-05-08T16:22:40.421Z,19.10
2023-05-08T16:25:08.377Z,19.20
2023-05-08T16:27:35.655Z,19.20
2023-05-08T16:30:02.729Z,19.20
2023-05-08T16:32:41.598Z,19.40
2023-05-08T16:35:09.663Z,19.30
2023-05-08T16:37:44.565Z,19.40
2023-05-08T16:40:18.364Z,19.30
2023-05-08T16:42:45.513Z,19.40
2023-05-08T16:45:13.843Z,19.30
2023-05-08T16:47:45.925Z,19.40
2023-05-08T16:50:13.161Z,19.30
2023-05-08T16:52:40.618Z,19.30
2023-05-08T16:55:11.124Z,19.30
2023-05-08T16:57:38.614Z,19.40
2023-05-08T17:00:09.032Z,19.30
2023-05-08T17:02:36.703Z,19.30
2023-05-08T17:05:06.417Z,19.30
2023-05-08T17:10:20.486Z,19.30
2023-05-08T17:12:49.023Z,19.30
2023-05-08T17:15:16.528Z,19.20
2023-05-08T17:17:48.189Z,19.20
2023-05-08T17:20:15.867Z,19.10
2023-05-08T17:22:43.562Z,19.10
2023-05-08T17:25:13.095Z,19.10
2023-05-08T17:27:45.942Z,19.00
2023-05-08T17:30:16.961Z,19.00
2023-05-08T17:32:44.687Z,19.00
2023-05-08T17:35:12.411Z,19.00
2023-05-08T17:37:40.748Z,19.00
2023-05-08T17:40:10.024Z,19.00
2023-05-08T17:42:37.375Z,19.00
2023-05-08T17:45:08.186Z,18.80
2023-05-08T17:47:37.393Z,18.80
2023-05-08T17:50:06.505Z,18.80
2023-05-08T17:52:35.799Z,18.80
2023-05-08T17:55:03.363Z,18.70
2023-05-08T17:57:31.357Z,18.70
2023-05-08T17:59:58.886Z,18.60
2023-05-08T18:02:29.576Z,18.60
2023-05-08T18:04:57.891Z,18.60
2023-05-08T18:07:27.552Z,18.60
2023-05-08T18:09:56.081Z,18.60
2023-05-08T18:12:25.050Z,18.50
2023-05-08T18:14:53.126Z,18.50
2023-05-08T18:17:22.650Z,18.50
2023-05-08T18:19:52.106Z,18.50
2023-05-08T18:22:20.253Z,18.50
2023-05-08T18:24:50.233Z,18.50
2023-05-08T18:27:18.040Z,18.40
2023-05-08T18:29:45.620Z,18.50
2023-05-08T18:32:13.022Z,18.50
2023-05-08T18:34:40.962Z,18.50
2023-05-08T18:37:13.594Z,18.50
2023-05-08T18:39:42.436Z,18.50
2023-05-08T18:42:11.013Z,18.40
2023-05-08T18:44:40.026Z,18.40
2023-05-08T18:47:08.773Z,18.40
2023-05-08T18:49:37.874Z,18.40
2023-05-08T18:52:05.934Z,18.30
2023-05-08T18:54:34.978Z,18.40
2023-05-08T18:57:03.024Z,18.40
2023-05-08T18:59:30.332Z,18.30
2023-05-08T19:01:59.558Z,18.20
2023-05-08T19:04:26.961Z,18.20
2023-05-08T19:06:54.721Z,18.20
2023-05-08T19:09:23.072Z,18.20
2023-05-08T19:11:55.469Z,18.20
2023-05-08T19:14:29.170Z,18.20
2023-05-08T19:16:58.363Z,18.20
2023-05-08T19:19:27.624Z,18.20
2023-05-08T19:21:57.767Z,18.10
2023-05-08T19:24:29.775Z,18.00
2023-05-08T19:26:59.030Z,18.00
2023-05-08T19:29:26.880Z,17.90
2023-05-08T19:31:56.439Z,17.90
2023-05-08T19:34:26.233Z,17.90
2023-05-08T19:36:56.850Z,17.80
2023-05-08T19:39:23.902Z,17.90
2023-05-08T19:41:54.269Z,17.90
2023-05-08T19:44:28.543Z,17.90
2023-05-08T19:47:00.595Z,17.90
2023-05-08T19:49:28.811Z,17.90
2023-05-08T19:51:57.114Z,17.90
2023-05-08T19:54:24.192Z,18.00
2023-05-08T19:56:52.841Z,17.90
2023-05-08T19:59:19.935Z,17.80
2023-05-08T20:01:50.749Z,17.80
2023-05-08T20:04:18.476Z,17.80
2023-05-08T20:06:48.906Z,17.70
2023-05-08T20:09:16.272Z,17.70
2023-05-08T20:11:43.446Z,17.70
2023-05-08T20:14:10.864Z,17.60
2023-05-08T20:16:38.169Z,17.50
2023-05-08T20:19:07.186Z,17.50
2023-05-08T20:21:35.278Z,17.50
2023-05-08T20:24:02.635Z,17.50
2023-05-08T20:26:29.900Z,17.40
2023-05-08T20:28:58.665Z,17.40
2023-05-08T20:31:31.696Z,17.50
2023-05-08T20:33:59.962Z,17.40
2023-05-08T20:36:28.760Z,17.40
2023-05-08T20:38:55.830Z,17.40
2023-05-08T20:41:22.990Z,17.30
2023-05-08T20:43:49.948Z,17.30
2023-05-08T20:46:17.064Z,17.50
2023-05-08T20:48:51.171Z,17.50
2023-05-08T20:51:18.469Z,17.50
2023-05-08T20:53:46.886Z,17.50
2023-05-08T20:56:15.700Z,17.50
2023-05-08T20:58:44.983Z,17.50
2023-05-08T21:01:12.133Z,17.40
2023-05-08T21:03:42.710Z,17.30
2023-05-08T21:06:12.009Z,17.40
2023-05-08T21:08:39.735Z,17.40
2023-05-08T21:11:08.805Z,17.40
2023-05-08T21:13:37.315Z,17.40
2023-05-08T21:16:07.721Z,17.30
2023-05-08T21:18:36.702Z,17.30
2023-05-08T21:21:04.078Z,17.30
2023-05-08T21:23:31.234Z,17.30
2023-05-08T21:25:59.404Z,17.20
2023-05-08T21:28:27.874Z,17.10
2023-05-08T21:30:54.832Z,17.10
2023-05-08T21:33:22.509Z,17.00
2023-05-08T21:35:49.600Z,17.00
2023-05-08T21:38:16.687Z,17.00
2023-05-08T21:40:44.090Z,17.00
2023-05-08T21:43:11.593Z,17.00
2023-05-08T21:45:39.994Z,17.00
2023-05-08T21:48:13.458Z,17.00
2023-05-08T21:50:40.593Z,17.10
2023-05-08T21:53:08.073Z,17.10
2023-05-08T21:55:35.257Z,17.10
2023-05-08T21:58:02.340Z,17.10
2023-05-08T22:00:29.792Z,17.10
2023-05-08T22:02:58.326Z,17.00
2023-05-08T22:05:25.979Z,16.90
2023-05-08T22:07:53.520Z,17.00
2023-05-08T22:10:22.428Z,17.00
2023-05-08T22:12:49.485Z,17.10
2023-05-08T22:15:29.848Z,17.20
2023-05-08T22:18:00.230Z,17.10
2023-05-08T22:20:27.704Z,17.10
2023-05-08T22:22:56.772Z,17.10
2023-05-08T22:25:25.669Z,17.00
2023-05-08T22:27:52.807Z,17.10
2023-05-08T22:30:20.945Z,17.10
2023-05-08T22:32:55.935Z,17.10
2023-05-08T22:35:26.811Z,17.10
2023-05-08T22:38:00.408Z,17.00
2023-05-08T22:40:29.012Z,17.00
2023-05-08T22:42:56.242Z,16.90
2023-05-08T22:45:27.602Z,17.00
2023-05-08T22:47:55.575Z,17.00
2023-05-08T22:50:24.533Z,17.00
2023-05-08T22:52:51.578Z,17.00
2023-05-08T22:55:21.512Z,17.00
2023-05-08T22:57:48.943Z,17.00
2023-05-08T23:00:16.526Z,17.00
2023-05-08T23:02:44.172Z,17.00
2023-05-08T23:05:11.239Z,16.90
2023-05-08T23:07:41.129Z,16.90
2023-05-08T23:10:09.867Z,16.80
2023-05-08T23:12:37.039Z,16.80
2023-05-08T23:15:04.917Z,16.80
2023-05-08T23:17:32.089Z,16.80
2023-05-08T23:19:59.632Z,16.80
2023-05-08T23:22:28.481Z,16.80
2023-05-08T23:24:57.043Z,16.70
2023-05-08T23:27:25.514Z,16.90
2023-05-08T23:29:53.700Z,16.90
2023-05-08T23:32:21.210Z,16.80
2023-05-08T23:34:51.397Z,16.80
2023-05-08T23:37:18.954Z,16.80
2023-05-08T23:39:49.007Z,16.80
2023-05-08T23:42:20.787Z,16.70
2023-05-08T23:44:50.932Z,16.70
2023-05-08T23:47:21.265Z,16.70
2023-05-08T23:49:49.057Z,16.80
2023-05-08T23:52:17.795Z,16.70
2023-05-08T23:54:44.859Z,16.80
2023-05-08T23:57:12.375Z,16.70
2023-05-08T23:59:43.858Z,16.70
